Time;durP1;ratioP1;P1;durP2;ratioP2;P2;SDS_P1;SDS_P2;PMS_P1;PMS_P2;Temp;Humidity;BMP_temperature;BMP_pressure;BME280_temperature;BME280_humidity;BME280_pressure;Samples;Min_cycle;Max_cycle;Signal;HPM_P1;HPM_P2
2023/04/01 00:00:19;;;;;;;;;1.00;0.00;;;;;12.41;100.00;99748.91;5034254;28;46791;-79
2023/04/01 00:02:45;;;;;;;;;0.33;0.33;;;;;12.41;100.00;99748.06;5049833;28;45450;-77
2023/04/01 00:05:11;;;;;;;;;1.33;1.33;;;;;12.41;100.00;99739.81;5046697;28;45750;-78
2023/04/01 00:07:37;;;;;;;;;0.00;0.00;;;;;12.39;100.00;99729.06;5052285;28;45807;-77
2023/04/01 00:10:07;;;;;;;;;1.67;1.00;;;;;12.36;100.00;99735.06;5050529;28;46687;-77
2023/04/01 00:12:33;;;;;;;;;0.67;0.67;;;;;12.25;100.00;99719.47;5048153;28;45664;-77
2023/04/01 00:14:59;;;;;;;;;0.00;0.00;;;;;12.38;100.00;99741.16;5051663;28;45739;-76
2023/04/01 00:17:25;;;;;;;;;0.33;0.33;;;;;12.22;100.00;99728.19;5045007;28;45480;-77
2023/04/01 00:19:50;;;;;;;;;1.33;0.00;;;;;12.39;100.00;99756.56;5039514;28;45741;-79
2023/04/01 00:22:16;;;;;;;;;2.00;0.33;;;;;12.38;100.00;99759.56;5052121;28;45683;-81
2023/04/01 00:24:42;;;;;;;;;1.00;1.00;;;;;12.32;100.00;99755.84;5032339;28;45461;-78
2023/04/01 00:27:08;;;;;;;;;0.00;0.00;;;;;12.27;100.00;99747.53;5040101;28;46233;-76
2023/04/01 00:29:33;;;;;;;;;0.00;0.00;;;;;12.24;100.00;99743.34;5057508;28;45538;-76
2023/04/01 00:31:59;;;;;;;;;2.00;0.00;;;;;12.19;100.00;99757.81;5052310;28;45738;-76
2023/04/01 00:34:25;;;;;;;;;0.00;0.00;;;;;12.22;100.00;99761.19;5045465;28;45740;-76
2023/04/01 00:36:52;;;;;;;;;1.00;0.33;;;;;12.19;100.00;99754.25;5060304;28;45834;-75
2023/04/01 00:39:18;;;;;;;;;0.00;0.00;;;;;12.15;100.00;99764.88;5037371;28;46388;-77
2023/04/01 00:41:43;;;;;;;;;0.67;0.67;;;;;12.15;100.00;99766.81;5053553;28;45711;-76
2023/04/01 00:44:22;;;;;;;;;1.00;0.00;;;;;12.18;100.00;99756.19;5059035;28;45807;-77
2023/04/01 00:46:48;;;;;;;;;4.33;1.00;;;;;12.11;100.00;99755.47;5049750;28;47025;-77
2023/04/01 00:49:17;;;;;;;;;2.00;2.00;;;;;12.14;100.00;99760.47;5036722;28;46127;-75
2023/04/01 00:51:47;;;;;;;;;0.00;0.00;;;;;12.14;100.00;99770.63;5035048;28;45480;-75
2023/04/01 00:54:15;;;;;;;;;3.00;0.00;;;;;12.16;100.00;99758.31;5063249;28;45665;-75
2023/04/01 00:56:48;;;;;;;;;1.00;0.67;;;;;12.17;100.00;99753.63;5058443;28;46078;-74
2023/04/01 00:59:20;;;;;;;;;2.00;0.00;;;;;12.16;100.00;99752.00;5051530;28;46525;-76
2023/04/01 01:01:46;;;;;;;;;0.67;0.67;;;;;12.21;100.00;99754.00;5042648;28;45477;-80
2023/04/01 01:04:29;;;;;;;;;1.00;1.00;;;;;12.19;100.00;99752.31;5061287;28;45748;-80
2023/04/01 01:07:04;;;;;;;;;1.00;0.00;;;;;12.10;100.00;99741.97;5039819;28;46817;-80
2023/04/01 01:09:55;;;;;;;;;1.33;1.00;;;;;12.14;100.00;99765.97;5049108;28;45747;-80
2023/04/01 01:12:31;;;;;;;;;1.00;0.67;;;;;12.13;100.00;99764.28;5036811;28;45689;-80
2023/04/01 01:15:08;;;;;;;;;2.00;0.00;;;;;12.14;100.00;99762.38;5042204;28;45429;-80
2023/04/01 01:18:05;;;;;;;;;2.00;0.00;;;;;12.13;100.00;99753.31;5042369;28;45472;-79
2023/04/01 01:20:33;;;;;;;;;1.33;0.00;;;;;12.18;100.00;99761.66;5040004;28;46327;-79
2023/04/01 01:23:13;;;;;;;;;0.67;0.67;;;;;12.16;100.00;99769.31;5061445;28;45514;-79
2023/04/01 01:25:57;;;;;;;;;3.67;0.00;;;;;12.13;100.00;99758.81;5032761;28;45564;-78
2023/04/01 01:28:53;;;;;;;;;1.00;0.00;;;;;12.09;100.00;99757.59;5039785;28;46044;-78
2023/04/01 01:31:38;;;;;;;;;3.00;1.00;;;;;11.99;100.00;99736.25;5033915;28;46655;-79
2023/04/01 01:34:29;;;;;;;;;0.00;0.00;;;;;12.08;100.00;99766.97;5061632;28;45435;-80
2023/04/01 01:37:01;;;;;;;;;2.00;0.00;;;;;12.03;100.00;99753.09;5032426;28;45590;-79
2023/04/01 01:39:31;;;;;;;;;0.00;0.00;;;;;12.07;100.00;99758.94;5056320;28;46388;-81
2023/04/01 01:42:00;;;;;;;;;0.00;0.00;;;;;12.09;100.00;99767.78;5034938;28;48049;-78
2023/04/01 01:44:30;;;;;;;;;1.00;0.67;;;;;11.97;100.00;99757.63;5036323;28;45980;-79
2023/04/01 01:46:57;;;;;;;;;1.00;0.00;;;;;12.08;100.00;99771.59;5040959;28;45715;-79
2023/04/01 01:49:23;;;;;;;;;0.33;0.00;;;;;12.08;100.00;99768.84;5059296;28;46401;-79
2023/04/01 01:51:49;;;;;;;;;1.00;1.00;;;;;12.08;100.00;99766.09;5054318;28;45772;-80
2023/04/01 01:54:16;;;;;;;;;1.67;0.00;;;;;12.06;100.00;99782.84;5048416;28;45655;-79
2023/04/01 01:56:46;;;;;;;;;0.00;0.00;;;;;12.06;100.00;99782.84;5045948;28;45520;-78
2023/04/01 01:59:15;;;;;;;;;1.00;0.00;;;;;11.87;100.00;99740.06;5051143;28;45707;-75
2023/04/01 02:01:51;;;;;;;;;0.00;0.00;;;;;12.06;100.00;99773.75;5031904;28;47475;-75
2023/04/01 02:04:18;;;;;;;;;1.00;0.00;;;;;12.00;100.00;99779.13;5050354;28;45469;-75
2023/04/01 02:07:00;;;;;;;;;0.00;0.00;;;;;12.05;100.00;99783.06;5053829;28;45865;-75
2023/04/01 02:09:26;;;;;;;;;0.00;0.00;;;;;12.05;100.00;99783.94;5054760;28;46952;-75
2023/04/01 02:11:57;;;;;;;;;2.00;2.00;;;;;12.03;100.00;99786.06;5044670;28;46596;-75
2023/04/01 02:14:28;;;;;;;;;2.00;0.00;;;;;12.04;100.00;99787.75;5055387;28;45454;-76
2023/04/01 02:17:07;;;;;;;;;1.00;0.00;;;;;12.03;100.00;99785.25;5049726;28;45878;-77
2023/04/01 02:19:38;;;;;;;;;1.00;0.00;;;;;12.04;100.00;99787.75;5058854;28;45826;-75
2023/04/01 02:22:08;;;;;;;;;0.00;0.00;;;;;12.07;100.00;99792.75;5051660;28;48068;-74
2023/04/01 02:24:37;;;;;;;;;2.00;0.00;;;;;11.97;100.00;99787.88;5029819;28;45767;-75
2023/04/01 02:27:04;;;;;;;;;0.67;0.00;;;;;12.02;100.00;99787.16;5052537;28;45783;-75
2023/04/01 02:29:30;;;;;;;;;1.00;1.00;;;;;12.04;100.00;99801.50;5058637;28;45532;-75
2023/04/01 02:31:55;;;;;;;;;0.00;0.00;;;;;12.00;100.00;99789.31;5045332;28;47103;-76
2023/04/01 02:34:23;;;;;;;;;1.00;0.00;;;;;11.96;100.00;99788.09;5058161;28;45404;-76
2023/04/01 02:36:50;;;;;;;;;0.67;0.00;;;;;11.96;100.00;99788.09;5040962;28;45750;-77
2023/04/01 02:39:16;;;;;;;;;1.00;0.00;;;;;12.03;100.00;99802.56;5045780;28;45823;-76
2023/04/01 02:41:43;;;;;;;;;0.00;0.00;;;;;12.02;100.00;99787.16;5059796;28;45733;-76
2023/04/01 02:44:10;;;;;;;;;3.00;1.00;;;;;12.10;100.00;99796.94;5061449;27;45564;-76
2023/04/01 02:46:36;;;;;;;;;0.00;0.00;;;;;12.11;100.00;99810.44;5064086;28;45602;-75
2023/04/01 02:49:02;;;;;;;;;1.00;1.00;;;;;12.14;100.00;99800.84;5061128;28;45499;-76
2023/04/01 02:51:27;;;;;;;;;1.00;0.00;;;;;12.15;100.00;99806.09;5037772;28;47961;-75
2023/04/01 02:53:52;;;;;;;;;1.67;0.00;;;;;12.05;100.00;99794.94;5051277;28;45640;-75
2023/04/01 02:56:19;;;;;;;;;0.00;0.00;;;;;12.08;100.00;99794.44;5048705;28;45689;-74
2023/04/01 02:58:45;;;;;;;;;2.00;0.00;;;;;12.23;100.00;99812.31;5058827;28;45378;-75
2023/04/01 03:01:10;;;;;;;;;2.00;0.00;;;;;12.25;100.00;99804.69;5042529;28;47953;-75
2023/04/01 03:03:35;;;;;;;;;2.00;1.00;;;;;12.23;100.00;99804.06;5041383;28;45931;-75
2023/04/01 03:06:09;;;;;;;;;1.67;1.00;;;;;12.17;100.00;99797.63;5046171;28;45944;-76
2023/04/01 03:08:35;;;;;;;;;1.00;0.00;;;;;12.27;100.00;99813.50;5060657;28;45919;-75
2023/04/01 03:11:00;;;;;;;;;0.00;0.00;;;;;12.26;100.00;99823.69;5032903;28;48579;-76
2023/04/01 03:13:26;;;;;;;;;1.33;0.33;;;;;12.26;100.00;99809.94;5056367;28;45373;-74
2023/04/01 03:15:51;;;;;;;;;0.00;0.00;;;;;12.31;100.00;99831.19;5065042;28;45435;-75
2023/04/01 03:18:17;;;;;;;;;2.00;0.00;;;;;12.18;100.00;99804.78;5065032;28;45878;-76
2023/04/01 03:20:43;;;;;;;;;2.67;2.00;;;;;12.26;100.00;99823.69;5061098;28;45765;-76
2023/04/01 03:23:08;;;;;;;;;2.00;2.00;;;;;12.29;100.00;99827.81;5047388;28;45706;-75
2023/04/01 03:25:34;;;;;;;;;1.00;0.00;;;;;12.26;100.00;99817.31;5036650;28;45436;-76
2023/04/01 03:27:59;;;;;;;;;1.00;0.67;;;;;12.13;100.00;99816.53;5063978;28;45764;-77
2023/04/01 03:30:26;;;;;;;;;0.00;0.00;;;;;12.05;100.00;99813.31;5026272;28;47023;-78
2023/04/01 03:32:51;;;;;;;;;0.00;0.00;;;;;12.14;100.00;99837.44;5031080;28;45997;-78
2023/04/01 03:35:18;;;;;;;;;1.00;0.00;;;;;12.09;100.00;99831.81;5055401;28;45651;-80
2023/04/01 03:37:43;;;;;;;;;0.33;0.00;;;;;12.05;100.00;99840.78;5042143;28;45886;-78
2023/04/01 03:40:09;;;;;;;;;0.00;0.00;;;;;12.12;100.00;99847.81;5060610;28;45581;-77
2023/04/01 03:42:35;;;;;;;;;5.00;0.00;;;;;12.10;100.00;99846.41;5036195;28;45491;-80
2023/04/01 03:45:00;;;;;;;;;0.00;0.00;;;;;12.07;100.00;99842.22;5032479;28;45760;-78
2023/04/01 03:47:26;;;;;;;;;0.00;0.00;;;;;12.11;100.00;99857.16;5057290;28;45875;-78
2023/04/01 03:49:51;;;;;;;;;1.00;1.00;;;;;12.04;100.00;99850.94;5059516;28;46359;-78
2023/04/01 03:52:17;;;;;;;;;2.00;1.00;;;;;12.04;100.00;99855.63;5054496;28;45596;-79
2023/04/01 03:54:42;;;;;;;;;4.67;1.33;;;;;11.94;100.00;99847.97;5052970;28;46124;-80
2023/04/01 03:57:07;;;;;;;;;0.00;0.00;;;;;11.96;100.00;99840.31;5048331;28;45821;-79
2023/04/01 03:59:34;;;;;;;;;2.33;0.00;;;;;11.94;100.00;99837.81;5026372;28;47210;-78
2023/04/01 04:01:59;;;;;;;;;1.00;1.00;;;;;11.99;100.00;99846.19;5044347;28;45419;-78
2023/04/01 04:04:25;;;;;;;;;3.67;1.00;;;;;12.08;100.00;99851.28;5042454;28;45446;-78
2023/04/01 04:06:51;;;;;;;;;0.00;0.00;;;;;12.15;100.00;99860.25;5051714;28;46002;-78
2023/04/01 04:09:16;;;;;;;;;0.67;0.67;;;;;12.12;100.00;99850.56;5059783;28;45301;-78
2023/04/01 04:11:42;;;;;;;;;3.00;0.67;;;;;12.21;100.00;99856.53;5055513;28;45334;-79
2023/04/01 04:14:07;;;;;;;;;0.33;0.33;;;;;12.03;100.00;99821.78;5048959;28;45713;-81
2023/04/01 04:16:36;;;;;;;;;2.33;0.00;;;;;12.05;100.00;99838.03;5025077;28;46938;-80
2023/04/01 04:19:02;;;;;;;;;1.00;1.00;;;;;12.24;100.00;99860.72;5030439;28;46142;-79
2023/04/01 04:21:27;;;;;;;;;1.00;1.00;;;;;12.29;100.00;99866.31;5050041;28;45819;-77
2023/04/01 04:23:53;;;;;;;;;0.00;0.00;;;;;12.26;100.00;99877.81;5052758;28;46125;-78
2023/04/01 04:26:19;;;;;;;;;2.00;0.00;;;;;12.25;100.00;99859.66;5052933;28;45508;-77
2023/04/01 04:28:44;;;;;;;;;3.67;1.67;;;;;12.33;100.00;99884.00;5053779;28;46174;-78
2023/04/01 04:31:10;;;;;;;;;1.00;0.00;;;;;12.34;100.00;99875.53;5052699;28;45869;-76
2023/04/01 04:33:35;;;;;;;;;1.00;0.33;;;;;12.34;100.00;99871.94;5048817;28;46520;-77
2023/04/01 04:36:02;;;;;;;;;2.00;0.00;;;;;12.29;100.00;99855.31;5051799;28;45773;-78
2023/04/01 04:38:28;;;;;;;;;2.67;0.00;;;;;12.30;100.00;99868.00;5050162;28;46171;-78
2023/04/01 04:40:53;;;;;;;;;1.00;1.00;;;;;12.36;100.00;99878.03;5048517;28;45839;-77
2023/04/01 04:43:19;;;;;;;;;0.67;0.67;;;;;12.30;100.00;99857.00;5041961;28;45315;-78
2023/04/01 04:45:45;;;;;;;;;11.33;0.00;;;;;12.29;100.00;99853.44;5046388;28;46602;-78
2023/04/01 04:48:16;;;;;;;;;1.00;0.00;;;;;12.38;100.00;99878.63;5061256;28;45672;-78
2023/04/01 04:50:41;;;;;;;;;1.00;0.00;;;;;12.36;100.00;99872.53;5053609;28;45978;-78
2023/04/01 04:53:10;;;;;;;;;0.00;0.00;;;;;12.33;100.00;99873.00;5052335;28;45510;-77
2023/04/01 04:55:35;;;;;;;;;2.33;0.33;;;;;12.41;100.00;99886.41;5033317;28;47583;-76
2023/04/01 04:58:01;;;;;;;;;2.00;0.33;;;;;12.30;100.00;99871.56;5040323;28;47058;-78
2023/04/01 05:00:26;;;;;;;;;0.00;0.00;;;;;12.42;100.00;99888.06;5054757;28;45818;-76
2023/04/01 05:02:52;;;;;;;;;0.67;0.00;;;;;12.42;100.00;99876.22;5067360;28;45528;-81
2023/04/01 05:05:17;;;;;;;;;2.00;0.00;;;;;12.41;100.00;99886.41;5069615;28;45564;-79
2023/04/01 05:07:42;;;;;;;;;0.67;0.67;;;;;12.41;100.00;99885.53;5058575;28;46702;-78
2023/04/01 05:10:08;;;;;;;;;0.00;0.00;;;;;12.42;100.00;99887.22;5057334;28;45771;-78
2023/04/01 05:12:37;;;;;;;;;0.33;0.33;;;;;12.41;100.00;99897.41;5044506;28;45588;-78
2023/04/01 05:15:05;;;;;;;;;0.00;0.00;;;;;12.46;100.00;99905.75;5045456;28;47133;-81
2023/04/01 05:17:30;;;;;;;;;1.00;0.00;;;;;12.47;100.00;99901.06;5055289;28;45624;-79
2023/04/01 05:19:56;;;;;;;;;2.00;0.00;;;;;12.50;100.00;99908.84;5056317;28;46004;-79
2023/04/01 05:22:22;;;;;;;;;0.67;0.67;;;;;12.54;100.00;99915.53;5046800;28;45886;-80
2023/04/01 05:24:47;;;;;;;;;1.33;0.00;;;;;12.53;100.00;99917.47;5047295;28;45502;-80
2023/04/01 05:27:12;;;;;;;;;1.33;0.67;;;;;12.56;100.00;99915.28;5025019;28;48035;-77
2023/04/01 05:29:38;;;;;;;;;0.00;0.00;;;;;12.56;100.00;99923.53;5051144;28;45379;-76
2023/04/01 05:32:03;;;;;;;;;2.00;2.00;;;;;12.49;100.00;99898.94;5052014;28;45437;-80
2023/04/01 05:34:28;;;;;;;;;0.33;0.33;;;;;12.33;100.00;99887.59;5049364;28;46267;-77
2023/04/01 05:36:54;;;;;;;;;3.33;1.00;;;;;12.48;100.00;99928.34;5051066;28;45490;-76
2023/04/01 05:39:20;;;;;;;;;0.67;0.00;;;;;12.53;100.00;99922.13;5032665;28;45617;-76
2023/04/01 05:41:45;;;;;;;;;2.33;0.67;;;;;12.53;100.00;99933.97;5033435;28;45591;-76
2023/04/01 05:44:12;;;;;;;;;1.67;0.00;;;;;12.50;100.00;99926.19;5042141;28;45463;-76
2023/04/01 05:46:37;;;;;;;;;2.33;1.33;;;;;12.51;100.00;99927.88;5042057;28;46395;-77
2023/04/01 05:49:02;;;;;;;;;2.00;1.00;;;;;12.55;100.00;99914.47;5038973;28;45993;-76
2023/04/01 05:51:28;;;;;;;;;1.00;0.00;;;;;12.54;100.00;99937.53;5049063;28;45402;-76
2023/04/01 05:53:53;;;;;;;;;3.67;0.33;;;;;12.49;100.00;99916.25;5039080;28;45618;-76
2023/04/01 05:56:19;;;;;;;;;1.00;0.67;;;;;12.48;100.00;99931.06;5040915;28;48407;-76
2023/04/01 05:58:50;;;;;;;;;0.00;0.00;;;;;12.56;100.00;99940.91;5043457;28;46431;-76
2023/04/01 06:01:15;;;;;;;;;1.00;1.00;;;;;12.54;100.00;99923.78;5041424;28;45518;-75
2023/04/01 06:03:41;;;;;;;;;0.00;0.00;;;;;12.56;100.00;99948.28;5027752;28;47339;-75
2023/04/01 06:06:15;;;;;;;;;1.00;0.00;;;;;12.56;100.00;99951.91;5021547;28;47912;-76
2023/04/01 06:08:40;;;;;;;;;1.67;0.67;;;;;12.60;100.00;99949.50;5031164;28;45526;-75
2023/04/01 06:11:40;;;;;;;;;0.00;0.00;;;;;12.59;100.00;99956.91;5039329;28;45487;-76
2023/04/01 06:14:51;;;;;;;;;0.67;0.67;;;;;12.66;100.00;99960.34;5041354;28;45925;-77
2023/04/01 06:17:16;;;;;;;;;1.33;0.00;;;;;12.67;100.00;99973.03;5043138;28;45887;-77
2023/04/01 06:20:02;;;;;;;;;0.00;0.00;;;;;12.56;100.00;99962.03;5029082;28;45702;-75
2023/04/01 06:22:45;;;;;;;;;1.00;0.00;;;;;12.75;100.00;99976.50;5017475;28;45563;-75
2023/04/01 06:25:10;;;;;;;;;5.00;0.00;;;;;12.79;100.00;99975.75;5033614;28;46485;-76
2023/04/01 06:28:09;;;;;;;;;0.67;0.00;;;;;12.85;100.00;99979.47;5037072;28;45922;-75
2023/04/01 06:30:43;;;;;;;;;0.00;0.00;;;;;12.83;100.00;99976.97;5043798;28;45782;-75
2023/04/01 06:33:28;;;;;;;;;0.67;0.00;;;;;12.91;100.00;99984.00;5041254;28;45877;-75
2023/04/01 06:36:06;;;;;;;;;1.00;0.00;;;;;12.97;100.00;99987.69;5042444;28;45479;-76
2023/04/01 06:38:46;;;;;;;;;0.00;0.00;;;;;13.02;100.00;99985.03;5036385;28;46782;-76
2023/04/01 06:41:43;;;;;;;;;2.67;0.00;;;;;13.08;100.00;99989.56;5033478;28;45473;-75
2023/04/01 06:44:34;;;;;;;;;0.67;0.67;;;;;13.11;100.00;99994.56;5040139;28;45724;-76
2023/04/01 06:47:20;;;;;;;;;0.67;0.33;;;;;13.16;100.00;100000.19;5013278;28;45747;-76
2023/04/01 06:50:04;;;;;;;;;0.67;0.00;;;;;13.28;100.00;100004.81;5014838;28;47713;-76
2023/04/01 06:52:57;;;;;;;;;0.67;0.67;;;;;13.35;100.00;99997.28;5047029;28;45640;-77
2023/04/01 06:55:37;;;;;;;;;0.00;0.00;;;;;13.45;100.00;100003.00;5048115;28;45955;-76
2023/04/01 06:58:10;;;;;;;;;0.00;0.00;;;;;13.50;100.00;99997.59;5037171;28;45501;-76
2023/04/01 07:00:42;;;;;;;;;2.00;0.00;;;;;13.41;100.00;99972.38;5031229;28;47091;-76
2023/04/01 07:03:23;;;;;;;;;0.67;0.67;;;;;13.66;100.00;100006.13;5045861;28;45907;-75
2023/04/01 07:05:50;;;;;;;;;1.33;0.00;;;;;13.72;100.00;100011.47;5054963;28;45516;-77
2023/04/01 07:08:24;;;;;;;;;1.33;0.33;;;;;13.82;100.00;100005.31;5054161;28;45923;-76
2023/04/01 07:11:02;;;;;;;;;2.00;0.00;;;;;13.94;100.00;100006.06;5047174;28;45394;-83
2023/04/01 07:13:44;;;;;;;;;0.00;0.00;;;;;14.12;100.00;100009.69;5055259;28;45794;-76
2023/04/01 07:16:17;;;;;;;;;0.67;0.00;;;;;14.18;100.00;99997.66;5050735;28;45378;-77
2023/04/01 07:18:59;;;;;;;;;0.00;0.00;;;;;14.45;100.00;100006.06;5042685;28;45774;-76
2023/04/01 07:21:53;;;;;;;;;1.67;0.33;;;;;14.58;100.00;100017.81;5058606;28;45477;-75
2023/04/01 07:24:26;;;;;;;;;0.00;0.00;;;;;14.68;100.00;100017.19;5051301;28;45727;-74
2023/04/01 07:26:55;;;;;;;;;0.00;0.00;;;;;14.73;100.00;100020.00;5054383;28;45732;-75
2023/04/01 07:29:21;;;;;;;;;1.67;0.67;;;;;14.87;100.00;100018.56;5048952;28;45892;-76
2023/04/01 07:31:52;;;;;;;;;0.00;0.00;;;;;14.96;100.00;100030.81;5049412;28;45806;-75
2023/04/01 07:34:24;;;;;;;;;0.00;0.00;;;;;15.10;100.00;100020.22;5048015;28;45643;-76
2023/04/01 07:37:19;;;;;;;;;1.00;0.00;;;;;15.14;100.00;100023.31;5056654;28;45438;-74
2023/04/01 07:40:05;;;;;;;;;0.00;0.00;;;;;15.56;100.00;100017.16;5042964;28;45614;-76
2023/04/01 07:42:43;;;;;;;;;0.00;0.00;;;;;15.74;100.00;100024.25;5025721;28;46976;-75
2023/04/01 07:45:28;;;;;;;;;0.00;0.00;;;;;15.95;100.00;100025.31;5028425;28;45370;-77
2023/04/01 07:48:08;;;;;;;;;0.00;0.00;;;;;15.94;100.00;100031.13;5031174;28;45471;-76
2023/04/01 07:50:46;;;;;;;;;2.00;0.33;;;;;15.90;100.00;100044.66;5029847;28;46164;-79
2023/04/01 07:53:35;;;;;;;;;1.00;0.00;;;;;15.89;100.00;100032.72;5025902;28;47673;-78
2023/04/01 07:56:08;;;;;;;;;2.00;0.00;;;;;15.92;100.00;100036.09;5023368;28;45797;-78
2023/04/01 07:58:55;;;;;;;;;0.00;0.00;;;;;15.84;100.00;100026.34;5045082;28;45832;-77
2023/04/01 08:01:34;;;;;;;;;0.00;0.00;;;;;15.63;100.00;100039.06;5032104;28;45471;-76
2023/04/01 08:04:35;;;;;;;;;0.67;0.00;;;;;15.46;100.00;100020.63;5029038;28;45866;-82
2023/04/01 08:07:09;;;;;;;;;0.33;0.00;;;;;15.40;100.00;100034.66;5031677;28;45746;-79
2023/04/01 08:09:54;;;;;;;;;0.00;0.00;;;;;15.26;100.00;100039.75;5031216;28;45355;-79
2023/04/01 08:12:43;;;;;;;;;1.00;1.00;;;;;15.24;100.00;100020.69;5028739;28;45533;-82
2023/04/01 08:15:30;;;;;;;;;0.67;0.00;;;;;15.42;100.00;100054.56;5013430;28;45762;-83
2023/04/01 08:18:33;;;;;;;;;1.00;1.00;;;;;15.40;100.00;100048.50;5016351;28;45732;-79
2023/04/01 08:21:03;;;;;;;;;0.00;0.00;;;;;15.43;100.00;100039.69;4951206;28;45462;-79
2023/04/01 08:23:33;;;;;;;;;1.00;0.00;;;;;15.58;100.00;100061.13;5031697;28;45849;-79
2023/04/01 08:26:06;;;;;;;;;1.00;0.00;;;;;15.47;100.00;100068.47;5042016;28;45767;-79
2023/04/01 08:28:44;;;;;;;;;1.00;1.00;;;;;15.24;100.00;100070.41;5021222;28;45502;-79
2023/04/01 08:31:37;;;;;;;;;1.00;0.00;;;;;15.28;100.00;100067.97;5030798;28;45518;-79
2023/04/01 08:34:10;;;;;;;;;1.00;0.00;;;;;15.28;100.00;100060.50;5024116;28;45417;-79
2023/04/01 08:36:50;;;;;;;;;0.00;0.00;;;;;15.23;100.00;100074.25;5030649;28;47205;-78
2023/04/01 08:39:23;;;;;;;;;0.00;0.00;;;;;15.18;100.00;100074.19;5031335;28;45466;-78
2023/04/01 08:41:54;;;;;;;;;0.00;0.00;;;;;15.09;100.00;100067.44;5014030;28;45711;-80
2023/04/01 08:44:39;;;;;;;;;0.00;0.00;;;;;15.13;100.00;100090.69;5029427;28;45441;-78
2023/04/01 08:47:35;;;;;;;;;1.00;0.00;;;;;14.93;100.00;100081.03;5028046;28;45363;-78
2023/04/01 08:50:09;;;;;;;;;0.00;0.00;;;;;14.91;100.00;100096.16;5032156;28;45780;-78
2023/04/01 08:52:54;;;;;;;;;1.67;0.00;;;;;15.05;100.00;100085.63;5031509;28;45845;-77
2023/04/01 08:55:43;;;;;;;;;3.33;1.00;;;;;15.50;100.00;100082.59;5013663;28;46865;-80
2023/04/01 08:58:38;;;;;;;;;0.00;0.00;;;;;16.11;100.00;100078.84;5029648;28;45900;-75
2023/04/01 09:01:25;;;;;;;;;2.00;1.00;;;;;16.28;100.00;100073.19;5014669;28;45529;-77
2023/04/01 09:04:13;;;;;;;;;0.00;0.00;;;;;16.37;100.00;100070.78;5017762;28;45640;-79
2023/04/01 09:07:07;;;;;;;;;0.00;0.00;;;;;16.40;100.00;100071.06;5019081;28;45825;-76
2023/04/01 09:10:13;;;;;;;;;0.00;0.00;;;;;16.32;100.00;100063.28;5016483;28;47477;-75
2023/04/01 09:12:54;;;;;;;;;0.00;0.00;;;;;16.35;100.00;100068.28;5005363;28;45945;-76
2023/04/01 09:15:45;;;;;;;;;1.00;0.00;;;;;16.15;100.00;100063.41;5033588;28;45881;-75
2023/04/01 09:18:46;;;;;;;;;0.00;0.00;;;;;16.11;100.00;100073.31;5007330;28;46110;-79
2023/04/01 09:21:23;;;;;;;;;0.00;0.00;;;;;16.02;100.00;100069.38;5021287;28;45562;-75
2023/04/01 09:24:24;;;;;;;;;1.00;0.00;;;;;15.96;100.00;100074.00;5040173;28;45905;-76
2023/04/01 09:27:04;;;;;;;;;0.00;0.00;;;;;15.94;100.00;100059.59;5023080;28;45939;-78
2023/04/01 09:30:10;;;;;;;;;0.00;0.00;;;;;16.02;100.00;100067.44;5007715;28;46133;-77
2023/04/01 09:32:45;;;;;;;;;0.67;0.00;;;;;16.13;100.00;100075.84;5037583;28;45951;-77
2023/04/01 09:35:20;;;;;;;;;0.00;0.00;;;;;16.08;100.00;100067.47;5005278;28;45771;-76
2023/04/01 09:37:46;;;;;;;;;0.00;0.00;;;;;16.08;100.00;100073.00;5004362;28;45643;-77
2023/04/01 09:40:17;;;;;;;;;1.00;1.00;;;;;16.10;100.00;100065.28;5003650;28;46093;-77
2023/04/01 09:43:12;;;;;;;;;0.00;0.00;;;;;16.11;100.00;100083.53;5023482;28;47517;-77
2023/04/01 09:45:43;;;;;;;;;0.33;0.33;;;;;16.12;100.00;100080.50;5035630;28;46350;-75
2023/04/01 09:48:37;;;;;;;;;1.00;0.00;;;;;16.15;100.00;100085.53;5023314;28;45798;-77
2023/04/01 09:51:23;;;;;;;;;1.00;0.00;;;;;16.19;100.00;100080.31;5029983;28;45626;-75
2023/04/01 09:56:45;;;;;;;;;1.00;0.00;;;;;16.14;100.00;100094.94;4877478;26;46369;-79
2023/04/01 09:59:48;;;;;;;;;2.67;0.00;;;;;16.14;100.00;100080.28;5039105;28;45889;-79
2023/04/01 10:02:22;;;;;;;;;0.00;0.00;;;;;16.17;100.00;100108.25;5043978;28;45389;-82
2023/04/01 10:05:24;;;;;;;;;0.00;0.00;;;;;16.12;100.00;100085.22;5051991;28;45271;-81
2023/04/01 10:08:11;;;;;;;;;3.33;1.33;;;;;16.43;100.00;100108.47;5040435;28;45339;-79
2023/04/01 10:10:58;;;;;;;;;0.33;0.33;;;;;16.88;100.00;100103.56;5049090;28;45927;-77
2023/04/01 10:13:42;;;;;;;;;1.33;0.00;;;;;17.23;100.00;100100.19;5040964;28;45388;-77
2023/04/01 10:16:33;;;;;;;;;0.67;0.00;;;;;17.35;100.00;100102.75;5039623;28;46643;-79
2023/04/01 10:19:40;;;;;;;;;1.33;0.00;;;;;17.53;100.00;100101.44;5037099;28;45792;-82
2023/04/01 10:22:35;;;;;;;;;0.67;0.00;;;;;18.03;100.00;100101.88;5042659;28;45162;-78
2023/04/01 10:25:38;;;;;;;;;0.00;0.00;;;;;19.02;96.91;100106.34;5042134;28;45828;-80
2023/04/01 10:28:27;;;;;;;;;1.00;0.00;;;;;20.32;90.86;100097.13;5042410;28;45767;-77
2023/04/01 10:31:24;;;;;;;;;1.00;0.00;;;;;20.91;90.29;100094.41;5042479;28;45729;-75
2023/04/01 10:34:11;;;;;;;;;0.00;0.00;;;;;21.27;84.51;100092.06;5057405;28;45584;-74
2023/04/01 10:36:55;;;;;;;;;0.00;0.00;;;;;21.43;82.49;100095.50;5056313;28;45697;-75
2023/04/01 10:39:35;;;;;;;;;0.00;0.00;;;;;21.50;79.26;100100.75;5047328;28;46265;-74
2023/04/01 10:42:28;;;;;;;;;0.00;0.00;;;;;21.59;77.88;100086.97;5046811;28;45453;-78
2023/04/01 10:45:18;;;;;;;;;1.00;0.00;;;;;22.10;74.79;100079.84;5040448;28;45810;-80
2023/04/01 10:47:56;;;;;;;;;0.00;0.00;;;;;22.46;73.39;100087.69;5052234;28;45432;-83
2023/04/01 10:50:27;;;;;;;;;0.00;0.00;;;;;22.45;73.69;100084.03;5057513;28;45748;-81
2023/04/01 10:53:19;;;;;;;;;0.00;0.00;;;;;22.21;71.15;100087.72;5039900;28;45746;-78
2023/04/01 10:56:01;;;;;;;;;0.00;0.00;;;;;21.85;70.52;100084.66;5028082;28;45923;-78
2023/04/01 10:58:42;;;;;;;;;0.00;0.00;;;;;21.51;69.79;100085.66;5036196;28;47099;-76
2023/04/01 11:01:35;;;;;;;;;1.00;0.00;;;;;21.52;70.09;100082.56;5032334;28;48392;-77
2023/04/01 11:04:25;;;;;;;;;0.00;0.00;;;;;21.65;69.80;100092.19;5020810;28;45608;-77
2023/04/01 11:07:12;;;;;;;;;0.00;0.00;;;;;21.48;67.87;100080.66;5043017;28;46025;-78
2023/04/01 11:10:06;;;;;;;;;0.25;0.00;;;;;21.07;68.67;100081.16;5043474;28;45803;-81
2023/04/01 11:13:07;;;;;;;;;0.25;0.25;;;;;20.74;68.26;100059.44;5039941;28;46881;-81
2023/04/01 11:16:10;;;;;;;;;0.00;0.00;;;;;20.38;69.44;100086.78;5052655;28;45828;-82
2023/04/01 11:18:52;;;;;;;;;1.50;1.00;;;;;20.21;72.01;100085.25;5044195;28;45435;-84
2023/04/01 11:21:32;;;;;;;;;0.00;0.00;;;;;20.17;71.71;100102.81;5044456;28;45781;-82
2023/04/01 13:14:39;;;;;;;;;24.00;23.33;;;;;19.88;69.38;100095.19;4997356;28;46625;-84
2023/04/01 13:17:30;;;;;;;;;2.67;2.00;;;;;20.06;68.14;100088.97;4991579;28;45216;-83
2023/04/01 13:20:05;;;;;;;;;11.33;6.33;;;;;19.99;67.98;100094.00;4998638;28;45528;-83
2023/04/01 13:23:09;;;;;;;;;10.33;9.33;;;;;19.96;68.02;100075.09;5001001;28;44865;-85
2023/04/01 13:26:16;;;;;;;;;1.33;0.67;;;;;19.85;68.95;100085.47;4984974;28;45191;-84
2023/04/01 13:28:52;;;;;;;;;0.67;0.67;;;;;19.92;69.05;100076.78;4963599;28;46839;-84
2023/04/01 13:31:40;;;;;;;;;0.00;0.00;;;;;20.09;68.19;100084.78;4997204;28;45743;-83
2023/04/01 13:34:13;;;;;;;;;0.00;0.00;;;;;19.98;67.59;100085.94;4997173;28;45733;-85
2023/04/01 13:36:38;;;;;;;;;0.33;0.00;;;;;20.01;67.51;100088.16;5016111;28;45142;-85
2023/04/01 13:39:18;;;;;;;;;0.00;0.00;;;;;19.90;67.14;100088.22;5005327;28;47820;-84
2023/04/01 13:42:07;;;;;;;;;0.50;0.00;;;;;19.75;66.95;100079.94;4992000;28;45477;-85
2023/04/01 13:44:40;;;;;;;;;2.00;1.00;;;;;19.75;67.52;100079.94;4993283;28;45551;-85
2023/04/01 13:47:30;;;;;;;;;1.25;0.25;;;;;19.83;68.46;100089.66;4998816;28;45964;-83
2023/04/01 13:50:19;;;;;;;;;0.75;0.00;;;;;19.83;68.57;100084.09;5008953;28;45782;-85
2023/04/01 13:52:57;;;;;;;;;0.00;0.00;;;;;19.91;67.87;100081.53;5005980;28;45537;-85